Data for 02/26/2018

Time Sea-Level Adjusted Pressure Absolute Pressure Temperature Relative Humidity Dew Point   
(mb) (inHg) (mb) (inHg) (C) (F) (%) (C) (F)
00:05 1006 29.71 835 24.66 -0.9 30.4 40 -13 8.7
00:10 1006 29.71 835 24.66 -0.8 30.5 40 -12.8 8.9
00:15 1006 29.71 835 24.66 -0.7 30.8 38 -13.2 8.3
00:20 1006 29.71 835 24.66 -0.6 30.9 39 -12.9 8.7
00:25 1006 29.71 835 24.66 -0.8 30.6 40 -12.9 8.8
00:30 1006 29.71 835 24.66 -0.9 30.5 40 -12.8 8.9
00:35 1006 29.71 835 24.66 -1 30.2 41 -12.5 9.4
00:40 1006 29.71 835 24.66 -1.1 30.1 41 -12.7 9.1
00:45 1006 29.71 835 24.66 -1 30.2 42 -12.2 10
00:50 1006 29.71 835 24.66 -1.2 29.9 41 -12.7 9.1
00:55 1006 29.71 835 24.66 -1.1 30 42 -12.4 9.7
01:00 1006 29.71 835 24.66 -1.1 30 42 -12.4 9.7
01:05 1006 29.71 835 24.66 -1.1 29.9 41 -12.9 8.8
01:10 1006 29.71 835 24.66 -1 30.1 40 -13 8.7
01:15 1006 29.71 835 24.66 -1.1 30 41 -12.7 9.1
01:20 1006 29.71 835 24.66 -1.2 29.9 40 -13.3 8.1
01:25 1006 29.71 835 24.66 -0.9 30.4 39 -13.3 8
01:30 1006 29.71 835 24.66 -1.1 30 39 -13.4 7.8
01:35 1006 29.71 835 24.66 -1.2 29.8 40 -13.1 8.5
01:40 1006 29.71 835 24.66 -1.3 29.7 40 -13.3 8.1
01:45 1006 29.71 835 24.66 -1.3 29.7 39 -13.5 7.7
01:50 1006 29.71 835 24.66 -1.4 29.6 41 -13 8.7
01:55 1006 29.71 835 24.66 -1.4 29.5 40 -13.3 8
02:00 1006 29.71 835 24.66 -1.2 29.9 40 -13 8.6
02:05 1006 29.71 835 24.66 -1.3 29.7 40 -13.2 8.2
02:10 1006 29.71 835 24.66 -1.2 29.8 40 -13.1 8.4
02:15 1006 29.71 835 24.66 -1.4 29.5 41 -13 8.5
02:20 1006 29.71 835 24.66 -1.2 29.9 39 -13.5 7.8
02:25 1006 29.71 835 24.66 -1.2 29.8 41 -12.9 8.7
02:30 1006 29.71 835 24.66 -1.5 29.4 40 -13.3 8.1
02:35 1006 29.71 835 24.66 -1.3 29.7 40 -13.2 8.2
02:40 1006 29.71 835 24.66 -1.3 29.7 40 -13.3 8.1
02:45 1006 29.71 835 24.66 -1.1 30.1 40 -13.1 8.3
02:50 1006 29.71 835 24.66 -1.2 29.9 40 -13.3 8.1
02:55 1006 29.71 835 24.66 -1.1 30 39 -13.4 7.9
03:00 1006 29.71 835 24.66 -1.1 30 39 -13.3 8.1
03:05 1006 29.71 836 24.69 -1.1 30 40 -13 8.7
03:10 1006 29.71 836 24.69 -1.3 29.7 44 -12 10.5
03:15 1007 29.74 836 24.69 -1.8 28.7 47 -11.8 10.8
03:20 1007 29.74 836 24.69 -2.1 28.2 46 -12.2 10
03:25 1007 29.74 836 24.69 -2.1 28.3 46 -12.3 9.8
03:30 1007 29.74 836 24.69 -1.9 28.6 43 -13 8.6
03:35 1007 29.74 836 24.69 -1.6 29.2 44 -12.3 9.8
03:40 1007 29.74 836 24.69 -1.6 29.1 44 -12.3 9.9
03:45 1007 29.74 836 24.69 -1.7 29 45 -12.2 10
03:50 1007 29.74 836 24.69 -1.8 28.8 47 -11.8 10.8
03:55 1007 29.74 837 24.72 -2.2 28 51 -11.2 11.9
04:00 1007 29.74 837 24.72 -2.5 27.4 52 -11 12.1
04:05 1007 29.74 837 24.72 -2.8 27 53 -11 12.2
04:10 1007 29.74 837 24.72 -2.8 26.9 54 -10.9 12.3
04:15 1008 29.77 837 24.72 -2.9 26.8 54 -10.9 12.4
04:20 1008 29.77 837 24.72 -2.8 26.9 54 -10.8 12.6
04:25 1008 29.77 837 24.72 -2.8 27 55 -10.7 12.7
04:30 1008 29.77 837 24.72 -2.8 27 53 -11.1 12
04:35 1008 29.77 837 24.72 -2.8 26.9 54 -11 12.2
04:40 1008 29.77 837 24.72 -2.9 26.8 55 -10.8 12.6
04:45 1008 29.77 837 24.72 -2.9 26.7 56 -10.5 13
04:50 1008 29.77 837 24.72 -2.9 26.8 56 -10.4 13.3
04:55 1008 29.77 837 24.72 -3 26.6 57 -10.3 13.5
05:00 1008 29.77 837 24.72 -3.1 26.5 59 -10 13.9
05:05 1008 29.77 837 24.72 -3.1 26.3 60 -9.9 14.2
05:10 1008 29.77 837 24.72 -3 26.5 59 -9.9 14.1
05:15 1008 29.77 837 24.72 -2.9 26.8 57 -10.2 13.7
05:20 1008 29.77 837 24.72 -2.8 27 57 -10.2 13.7
05:25 1008 29.77 837 24.72 -2.7 27.1 57 -10 14
05:30 1008 29.77 837 24.72 -2.8 27 58 -9.9 14.2
05:35 1008 29.77 837 24.72 -2.8 27 60 -9.6 14.7
05:40 1008 29.77 837 24.72 -2.8 26.9 61 -9.2 15.4
05:45 1008 29.77 837 24.72 -3 26.7 63 -9 15.7
05:50 1008 29.77 838 24.75 -3.1 26.5 63 -9.1 15.6
05:55 1008 29.77 838 24.75 -3 26.6 64 -8.9 16
06:00 1009 29.8 838 24.75 -3 26.5 65 -8.8 16.1
06:05 1009 29.8 838 24.75 -3 26.5 66 -8.6 16.6
06:10 1009 29.8 838 24.75 -3 26.6 67 -8.3 17.1
06:15 1009 29.8 838 24.75 -3.1 26.4 71 -7.7 18.2
06:20 1009 29.8 838 24.75 -3.3 26 76 -7 19.4
06:25 1009 29.8 838 24.75 -3.7 25.4 80 -6.6 20.2
06:30 1009 29.8 838 24.75 -3.8 25.1 82 -6.5 20.4
06:35 1009 29.8 838 24.75 -3.9 25 84 -6.2 20.9
06:40 1009 29.8 838 24.75 -4 24.9 85 -6.1 21
06:45 1009 29.8 838 24.75 -4 24.8 85 -6.1 20.9
06:50 1009 29.8 838 24.75 -4 24.7 86 -6.1 21
06:55 1009 29.8 838 24.75 -4 24.7 86 -6.1 21.1
07:00 1009 29.8 838 24.75 -4 24.7 86 -6 21.1
07:05 1009 29.8 839 24.78 -4 24.8 86 -6 21.2
07:10 1009 29.8 839 24.78 -4 24.9 86 -5.9 21.4
07:15 1009 29.8 839 24.78 -3.9 25 86 -5.8 21.5
07:20 1010 29.83 839 24.78 -3.9 25 86 -5.9 21.4
07:25 1010 29.83 839 24.78 -3.8 25.2 86 -5.8 21.6
07:30 1010 29.83 839 24.78 -3.7 25.3 85 -5.8 21.5
07:35 1010 29.83 839 24.78 -3.7 25.4 85 -5.8 21.6
07:40 1010 29.83 839 24.78 -3.6 25.5 85 -5.7 21.7
07:45 1010 29.83 839 24.78 -3.6 25.6 85 -5.7 21.8
07:50 1010 29.83 839 24.78 -3.5 25.6 86 -5.6 21.9
07:55 1010 29.83 839 24.78 -3.5 25.7 86 -5.6 22
08:00 1010 29.83 839 24.78 -3.5 25.7 86 -5.5 22.1
08:05 1010 29.83 839 24.78 -3.5 25.7 86 -5.5 22.1
08:10 1010 29.83 839 24.78 -3.5 25.7 86 -5.5 22.1
08:15 1010 29.83 839 24.78 -3.6 25.6 86 -5.6 21.9
08:20 1010 29.83 839 24.78 -4.1 24.7 86 -6.1 21
08:25 1010 29.83 839 24.78 -4.5 23.8 86 -6.6 20.2
08:30 1010 29.83 840 24.81 -4.8 23.3 86 -6.8 19.8
08:35 1010 29.83 840 24.81 -4.9 23.2 86 -6.8 19.7
08:40 1011 29.85 840 24.81 -5 23.1 86 -7 19.4
08:45 1011 29.85 840 24.81 -5 23 86 -6.9 19.5
08:50 1011 29.85 840 24.81 -5 23.1 86 -7 19.4
08:55 1011 29.85 840 24.81 -4.9 23.2 86 -6.9 19.5
09:00 1011 29.85 840 24.81 -4.8 23.4 85 -7 19.4
09:05 1011 29.85 840 24.81 -4.6 23.7 84 -6.9 19.6
09:10 1011 29.85 840 24.81 -4.3 24.2 84 -6.7 19.9
09:15 1011 29.85 840 24.81 -4.3 24.3 83 -6.7 20
09:20 1011 29.85 840 24.81 -4.3 24.2 81 -7 19.3
09:25 1011 29.85 840 24.81 -4.3 24.3 83 -6.8 19.7
09:30 1011 29.85 840 24.81 -4.3 24.3 82 -6.8 19.7
09:35 1011 29.85 841 24.83 -4.2 24.5 80 -7.2 19.1
09:40 1011 29.85 841 24.83 -4.2 24.4 81 -7 19.4
09:45 1012 29.88 841 24.83 -4 24.7 81 -6.9 19.6
09:50 1012 29.88 841 24.83 -3.9 25 79 -7 19.4
09:55 1012 29.88 841 24.83 -3.7 25.4 79 -6.8 19.8
10:00 1012 29.88 841 24.83 -3.7 25.3 78 -7 19.4
10:05 1012 29.88 841 24.83 -3.8 25.1 77 -7.2 19
10:10 1012 29.88 841 24.83 -4.1 24.7 78 -7.4 18.7
10:15 1012 29.88 841 24.83 -3.9 24.9 78 -7.2 19
10:20 1012 29.88 841 24.83 -3.6 25.6 78 -6.8 19.7
10:25 1012 29.88 841 24.83 -3 26.6 74 -7 19.4
10:30 1012 29.88 841 24.83 -3.2 26.2 75 -7.1 19.2
10:35 1012 29.88 841 24.83 -4.1 24.6 78 -7.4 18.6
10:40 1012 29.88 841 24.83 -3.8 25.2 77 -7.2 19.1
10:45 1012 29.88 841 24.83 -2.9 26.8 74 -6.9 19.7
10:50 1012 29.88 841 24.83 -3.1 26.5 74 -7.1 19.2
10:55 1012 29.88 841 24.83 -3.2 26.3 69 -8.1 17.5
11:00 1012 29.88 841 24.83 -2.9 26.8 72 -7.2 19
11:05 1012 29.88 841 24.83 -2.4 27.7 70 -7.2 19
11:10 1012 29.88 841 24.83 -2.4 27.6 69 -7.4 18.7
11:15 1012 29.88 841 24.83 -2.9 26.7 71 -7.4 18.6
11:20 1012 29.88 841 24.83 -3.6 25.5 75 -7.4 18.6
11:25 1012 29.88 841 24.83 -3.8 25.2 74 -7.8 18
11:30 1012 29.88 841 24.83 -3.3 26.1 74 -7.3 18.9
11:35 1012 29.88 841 24.83 -3.5 25.8 74 -7.5 18.6
11:40 1012 29.88 841 24.83 -2.9 26.7 69 -7.9 17.8
11:45 1012 29.88 841 24.83 -2.4 27.7 66 -7.9 17.8
11:50 1012 29.88 841 24.83 -2.2 28.1 66 -7.6 18.3
11:55 1012 29.88 841 24.83 -2 28.5 63 -8 17.5
12:00 1012 29.88 841 24.83 -2 28.5 63 -8.1 17.4
12:05 1012 29.88 841 24.83 -2.8 27 66 -8.3 17.1
12:10 1012 29.88 841 24.83 -2.3 27.8 65 -8.2 17.3
12:15 1012 29.88 841 24.83 -1.6 29.2 61 -8.2 17.2
12:20 1012 29.88 841 24.83 -1.5 29.3 62 -7.9 17.8
12:25 1012 29.88 841 24.83 -1.9 28.5 62 -8.4 16.9
12:30 1012 29.88 841 24.83 -1.7 29 59 -8.6 16.6
12:35 1012 29.88 841 24.83 -1.5 29.3 58 -8.7 16.3
12:40 1012 29.88 841 24.83 -1.9 28.5 59 -8.9 16
12:45 1012 29.88 841 24.83 -1.7 28.9 60 -8.6 16.5
12:50 1012 29.88 841 24.83 -2 28.4 59 -9.1 15.7
12:55 1012 29.88 841 24.83 -2 28.5 58 -9.1 15.6
13:00 1012 29.88 841 24.83 -2 28.4 59 -8.9 15.9
13:05 1012 29.88 841 24.83 -2.5 27.5 65 -8.1 17.4
13:10 1012 29.88 841 24.83 -2.5 27.5 62 -8.9 16
13:15 1012 29.88 841 24.83 -2.7 27.2 62 -8.9 16
13:20 1012 29.88 841 24.83 -2.4 27.7 61 -9 15.8
13:25 1012 29.88 841 24.83 -2.4 27.7 62 -8.8 16.2
13:30 1012 29.88 841 24.83 -2.4 27.8 59 -9.2 15.4
13:35 1012 29.88 842 24.86 -2.2 28.1 56 -9.7 14.5
13:40 1012 29.88 841 24.83 -2.6 27.3 57 -10.1 13.9
13:45 1012 29.88 842 24.86 -2.7 27.1 61 -9.3 15.3
13:50 1012 29.88 842 24.86 -2.7 27.1 59 -9.5 14.8
13:55 1012 29.88 842 24.86 -2.8 27 59 -9.6 14.7
14:00 1012 29.88 842 24.86 -2.5 27.5 57 -9.9 14.2
14:05 1012 29.88 842 24.86 -2.7 27.1 56 -10.3 13.4
14:10 1012 29.88 842 24.86 -2.8 26.9 58 -10 14
14:15 1013 29.91 842 24.86 -2.7 27.1 60 -9.5 14.9
14:20 1013 29.91 842 24.86 -2.7 27.1 58 -9.8 14.3
14:25 1013 29.91 842 24.86 -2.8 27 61 -9.3 15.2
14:30 1013 29.91 842 24.86 -2.7 27.1 60 -9.4 15.2
14:35 1013 29.91 842 24.86 -2.7 27.1 62 -9 15.8
14:40 1013 29.91 842 24.86 -2.6 27.3 61 -9.1 15.7
14:45 1013 29.91 842 24.86 -3.2 26.3 64 -9.1 15.6
14:50 1013 29.91 842 24.86 -3.5 25.8 67 -8.8 16.2
14:55 1013 29.91 842 24.86 -3.8 25.2 68 -8.9 16.1
15:00 1013 29.91 842 24.86 -3.9 24.9 68 -9 15.9
15:05 1013 29.91 842 24.86 -3.9 25 69 -8.9 16.1
15:10 1013 29.91 842 24.86 -4 24.8 69 -8.8 16.1
15:15 1013 29.91 842 24.86 -3.7 25.3 68 -8.9 16.1
15:20 1013 29.91 842 24.86 -3.7 25.3 68 -8.7 16.3
15:25 1013 29.91 842 24.86 -3.7 25.3 70 -8.4 16.9
15:30 1013 29.91 842 24.86 -4 24.7 72 -8.4 16.9
15:35 1013 29.91 842 24.86 -4.6 23.7 73 -8.7 16.4
15:40 1013 29.91 842 24.86 -4.3 24.2 72 -8.6 16.5
15:45 1013 29.91 843 24.89 -4.4 24.1 73 -8.5 16.7
15:50 1013 29.91 843 24.89 -4.3 24.2 71 -8.8 16.1
15:55 1013 29.91 843 24.89 -4.1 24.6 70 -8.8 16.2
16:00 1014 29.94 843 24.89 -4.3 24.3 73 -8.4 16.8
16:05 1014 29.94 843 24.89 -4.2 24.4 74 -8.3 17.1
16:10 1014 29.94 843 24.89 -4.7 23.6 76 -8.3 17.1
16:15 1014 29.94 843 24.89 -5 23.1 78 -8.2 17.2
16:20 1014 29.94 843 24.89 -4.7 23.6 77 -8.2 17.3
16:25 1014 29.94 843 24.89 -4.7 23.6 77 -8.2 17.3
16:30 1014 29.94 843 24.89 -4.7 23.5 77 -8.2 17.2
16:35 1014 29.94 843 24.89 -4.9 23.2 78 -8.1 17.4
16:40 1014 29.94 843 24.89 -4.9 23.1 78 -8.2 17.3
16:45 1014 29.94 843 24.89 -5.1 22.8 79 -8.2 17.3
16:50 1014 29.94 843 24.89 -5 23 79 -8.1 17.3
16:55 1014 29.94 843 24.89 -4.9 23.2 78 -8.3 17.1
17:00 1014 29.94 843 24.89 -5 23 78 -8.2 17.3
17:05 1014 29.94 843 24.89 -5.1 22.8 79 -8.2 17.3
17:10 1014 29.94 843 24.89 -5.2 22.7 79 -8.2 17.2
17:15 1014 29.94 843 24.89 -5.2 22.6 79 -8.4 16.9
17:20 1014 29.94 843 24.89 -5.2 22.7 79 -8.3 17
17:25 1014 29.94 843 24.89 -5.5 22.1 81 -8.3 17.1
17:30 1014 29.94 843 24.89 -5.6 21.9 82 -8.3 17
17:35 1014 29.94 843 24.89 -5.7 21.7 83 -8.2 17.2
17:40 1014 29.94 843 24.89 -5.8 21.5 83 -8.2 17.2
17:45 1014 29.94 844 24.92 -5.9 21.4 84 -8.2 17.3
17:50 1015 29.97 844 24.92 -5.9 21.3 84 -8.2 17.2
17:55 1015 29.97 844 24.92 -5.9 21.3 84 -8.2 17.2
18:00 1015 29.97 844 24.92 -5.9 21.4 84 -8.2 17.2
18:05 1015 29.97 844 24.92 -5.9 21.4 83 -8.3 17
18:10 1015 29.97 844 24.92 -5.9 21.4 82 -8.5 16.8
18:15 1015 29.97 844 24.92 -5.9 21.4 82 -8.5 16.7
18:20 1015 29.97 844 24.92 -5.8 21.6 81 -8.6 16.6
18:25 1015 29.97 844 24.92 -5.8 21.6 81 -8.5 16.7
18:30 1015 29.97 844 24.92 -5.7 21.7 80 -8.6 16.6
18:35 1015 29.97 844 24.92 -5.8 21.6 80 -8.6 16.5
18:40 1015 29.97 844 24.92 -5.8 21.6 80 -8.7 16.3
18:45 1015 29.97 844 24.92 -5.8 21.6 80 -8.7 16.3
18:50 1015 29.97 844 24.92 -5.8 21.5 80 -8.8 16.1
18:55 1015 29.97 844 24.92 -5.8 21.6 80 -8.8 16.2
19:00 1015 29.97 844 24.92 -5.8 21.5 80 -8.7 16.3
19:05 1015 29.97 844 24.92 -5.9 21.4 81 -8.7 16.3
19:10 1015 29.97 844 24.92 -5.9 21.3 81 -8.7 16.4
19:15 1015 29.97 844 24.92 -5.9 21.4 81 -8.7 16.4
19:20 1015 29.97 844 24.92 -6 21.3 81 -8.8 16.2
19:25 1015 29.97 844 24.92 -6 21.3 80 -8.8 16.1
19:30 1015 29.97 844 24.92 -6 21.2 80 -8.9 15.9
19:35 1015 29.97 844 24.92 -6 21.1 80 -9 15.9
19:40 1015 29.97 844 24.92 -6.1 21 80 -9 15.8
19:45 1015 29.97 844 24.92 -6 21.1 80 -9 15.8
19:50 1015 29.97 844 24.92 -6.1 21.1 79 -9.2 15.5
19:55 1015 29.97 844 24.92 -6 21.2 78 -9.2 15.5
20:00 1015 29.97 844 24.92 -5.9 21.3 79 -9 15.9
20:05 1015 29.97 844 24.92 -6 21.2 77 -9.3 15.2
20:10 1015 29.97 844 24.92 -6 21.2 78 -9.2 15.4
20:15 1015 29.97 844 24.92 -6 21.2 77 -9.3 15.2
20:20 1015 29.97 844 24.92 -5.9 21.3 78 -9.2 15.4
20:25 1015 29.97 844 24.92 -6 21.2 77 -9.4 15.2
20:30 1015 29.97 844 24.92 -6 21.2 77 -9.4 15.1
20:35 1015 29.97 845 24.95 -6 21.3 75 -9.7 14.6
20:40 1015 29.97 844 24.92 -6 21.3 74 -9.9 14.2
20:45 1015 29.97 845 24.95 -5.9 21.4 73 -10.1 13.9
20:50 1015 29.97 845 24.95 -5.8 21.6 71 -10.2 13.6
20:55 1015 29.97 845 24.95 -5.7 21.7 70 -10.4 13.3
21:00 1015 29.97 845 24.95 -5.7 21.7 69 -10.6 12.8
21:05 1015 29.97 845 24.95 -5.8 21.6 67 -10.9 12.3
21:10 1015 29.97 845 24.95 -5.8 21.5 67 -11.1 12
21:15 1015 29.97 845 24.95 -5.8 21.5 71 -10.3 13.5
21:20 1015 29.97 845 24.95 -6.1 21 75 -9.8 14.4
21:25 1015 29.97 845 24.95 -6.3 20.6 76 -9.8 14.3
21:30 1016 30 845 24.95 -6.3 20.7 76 -9.9 14.2
21:35 1016 30 845 24.95 -6 21.2 74 -9.9 14.3
21:40 1016 30 845 24.95 -5.9 21.3 72 -10.2 13.6
21:45 1016 30 845 24.95 -6.1 21.1 74 -10 14
21:50 1016 30 845 24.95 -6.1 21 74 -10.1 13.8
21:55 1016 30 845 24.95 -6.3 20.7 69 -11.1 12
22:00 1016 30 845 24.95 -6.3 20.6 68 -11.4 11.5
22:05 1016 30 845 24.95 -6.3 20.7 64 -12 10.4
22:10 1016 30 845 24.95 -6.4 20.5 65 -11.9 10.5
22:15 1016 30 845 24.95 -6.4 20.4 67 -11.7 11
22:20 1016 30 845 24.95 -6.5 20.4 66 -11.8 10.8
22:25 1016 30 845 24.95 -6.4 20.4 65 -11.9 10.6
22:30 1016 30 845 24.95 -6.5 20.2 66 -12 10.5
22:35 1016 30 845 24.95 -6.6 20 66 -12 10.4
22:40 1016 30 845 24.95 -6.7 19.9 65 -12.1 10.2
22:45 1016 30 845 24.95 -6.9 19.5 67 -12.1 10.2
22:50 1016 30 845 24.95 -7.2 19.1 66 -12.4 9.6
22:55 1016 30 845 24.95 -7.3 19 66 -12.5 9.5
23:00 1016 30 845 24.95 -7.3 18.9 66 -12.6 9.4
23:05 1016 30 845 24.95 -7.4 18.6 66 -12.8 9
23:10 1016 30 845 24.95 -7.4 18.6 65 -12.9 8.7
23:15 1016 30 845 24.95 -7.6 18.4 65 -13 8.5
23:20 1016 30 845 24.95 -7.6 18.3 65 -13.1 8.4
23:25 1016 30 845 24.95 -7.8 18 66 -13.1 8.4
23:30 1015 29.97 845 24.95 -8 17.5 67 -13.1 8.5
23:35 1015 29.97 845 24.95 -8.5 16.7 69 -13.1 8.4
23:40 1015 29.97 845 24.95 -9.1 15.5 72 -13.3 8.1
23:45 1015 29.97 845 24.95 -9.3 15.4 71 -13.5 7.7
23:50 1015 29.97 845 24.95 -9.4 15.1 73 -13.4 7.8
23:55 1015 29.97 845 24.95 -9.5 15 73 -13.4 7.9
24:00 1015 29.97 845 24.95 -9.5 14.8 75 -13.2 8.3